DAOV

Ghriss Airport

Algeria
METAR DAOV 170200Z 00000KT 9999 SCT026 SCT200 13/10 Q1014
Observed Flight Rules
Nov-17 @ 02:00 UTC (35 minutes ago) Visual Flight Rules
Visibility Clouds
10,000+ meters
  • Scattered at 2,600' AGL
  • Scattered at 20,000' AGL
Temperatures Readings
Current 13°C / 55°F
Dewpoint 10°C / 50°F
Humidity 82%
Altimeter 29.94" Hg
Pressure 1014 hPa
Elevation 514
METAR DAOV 170200Z 00000KT 9999 SCT026 SCT200 13/10 Q1014
Observed Flight Rules
Nov-17 @ 02:00 UTC
(35 minutes ago)
VFR
Clouds
  • Scattered at 2,600' AGL
  • Scattered at 20,000' AGL
Temperature Dewpoint
13°C / 55°F 10°C / 50°F
Humidity Altimeter Pressure
82% 29.94" Hg 1014 hPa